createdAt,value
2018-08-11T00:00:46.465Z,44.72
2018-08-11T00:03:15.461Z,44.61
2018-08-11T00:05:43.710Z,43.14
2018-08-11T00:08:11.970Z,42.03
2018-08-11T00:10:40.132Z,41.57
2018-08-11T00:13:09.120Z,40.74
2018-08-11T00:15:37.252Z,40.49
2018-08-11T00:18:06.144Z,40.57
2018-08-11T00:20:34.224Z,41.04
2018-08-11T00:23:03.562Z,40.84
2018-08-11T00:25:31.787Z,40.54
2018-08-11T00:28:00.824Z,41.33
2018-08-11T00:30:28.980Z,41.04
2018-08-11T00:32:57.125Z,39.97
2018-08-11T00:35:25.342Z,40.51
2018-08-11T00:37:53.600Z,40.73
2018-08-11T00:40:21.926Z,41.46
2018-08-11T00:42:50.552Z,42.04
2018-08-11T00:45:19.190Z,42.22
2018-08-11T00:47:47.338Z,42.78
2018-08-11T00:50:22.369Z,42.47
2018-08-11T00:52:51.478Z,43.30
2018-08-11T00:55:19.703Z,43.63
2018-08-11T00:57:47.953Z,43.24
2018-08-11T01:00:17.829Z,42.70
2018-08-11T01:02:46.071Z,42.66
2018-08-11T01:05:17.076Z,42.08
2018-08-11T01:07:46.382Z,42.18
2018-08-11T01:10:15.160Z,42.55
2018-08-11T01:12:44.209Z,41.98
2018-08-11T01:15:15.526Z,42.96
2018-08-11T01:17:44.341Z,42.96
2018-08-11T01:20:13.043Z,42.33
2018-08-11T01:22:42.074Z,43.25
2018-08-11T01:25:11.169Z,43.24
2018-08-11T01:27:40.413Z,43.32
2018-08-11T01:30:12.786Z,43.86
2018-08-11T01:32:41.015Z,43.71
2018-08-11T01:35:09.936Z,43.37
2018-08-11T01:37:39.088Z,43.28
2018-08-11T01:40:09.014Z,43.61
2018-08-11T01:42:37.222Z,43.89
2018-08-11T01:45:06.532Z,43.51
2018-08-11T01:47:34.770Z,43.84
2018-08-11T01:50:03.146Z,44.93
2018-08-11T01:52:31.310Z,44.33
2018-08-11T01:54:59.472Z,44.47
2018-08-11T01:57:27.648Z,44.99
2018-08-11T01:59:55.806Z,45.20
2018-08-11T02:02:23.942Z,45.12
2018-08-11T02:04:52.100Z,45.03
2018-08-11T02:07:20.380Z,45.26
2018-08-11T02:09:48.596Z,44.83
2018-08-11T02:12:16.828Z,45.65
2018-08-11T02:14:45.016Z,46.11
2018-08-11T02:17:13.168Z,45.46
2018-08-11T02:19:41.338Z,45.64
2018-08-11T02:22:09.532Z,46.44
2018-08-11T02:24:37.801Z,46.83
2018-08-11T02:27:06.148Z,47.01
2018-08-11T02:29:34.312Z,47.09
2018-08-11T02:32:02.492Z,47.95
2018-08-11T02:34:30.682Z,47.62
2018-08-11T02:36:58.848Z,48.15
2018-08-11T02:39:27.004Z,48.65
2018-08-11T02:41:55.327Z,48.77
2018-08-11T02:44:23.497Z,48.93
2018-08-11T02:46:51.733Z,48.96
2018-08-11T02:49:20.053Z,49.73
2018-08-11T02:51:48.263Z,50.01
2018-08-11T02:54:16.340Z,49.91
2018-08-11T02:56:44.488Z,49.82
2018-08-11T02:59:12.573Z,50.79
2018-08-11T03:01:40.761Z,50.84
2018-08-11T03:04:08.885Z,50.63
2018-08-11T03:06:37.079Z,51.37
2018-08-11T03:09:07.527Z,50.77
2018-08-11T03:11:35.721Z,51.70
2018-08-11T03:14:04.456Z,51.78
2018-08-11T03:16:32.737Z,51.03
2018-08-11T03:19:01.623Z,51.78
2018-08-11T03:21:29.773Z,51.59
2018-08-11T03:23:57.875Z,52.55
2018-08-11T03:26:26.074Z,52.73
2018-08-11T03:28:54.387Z,52.86
2018-08-11T03:31:22.509Z,53.09
2018-08-11T03:33:50.595Z,52.61
2018-08-11T03:36:18.790Z,52.95
2018-08-11T03:38:46.907Z,52.91
2018-08-11T03:41:15.066Z,52.83
2018-08-11T03:43:43.205Z,53.19
2018-08-11T03:46:11.639Z,53.86
2018-08-11T03:48:39.810Z,53.82
2018-08-11T03:51:08.043Z,53.76
2018-08-11T03:53:36.151Z,54.01
2018-08-11T03:56:04.301Z,53.50
2018-08-11T03:58:32.369Z,53.76
2018-08-11T04:01:00.575Z,53.86
2018-08-11T04:03:28.697Z,53.45
2018-08-11T04:05:56.881Z,53.63
2018-08-11T04:08:25.249Z,54.46
2018-08-11T04:10:53.413Z,53.78
2018-08-11T04:13:21.521Z,54.90
2018-08-11T04:15:49.756Z,55.11
2018-08-11T04:18:17.940Z,53.93
2018-08-11T04:20:46.056Z,54.45
2018-08-11T04:23:14.287Z,53.60
2018-08-11T04:25:42.406Z,54.26
2018-08-11T04:28:10.740Z,53.70
2018-08-11T04:30:38.882Z,53.85
2018-08-11T04:33:07.054Z,54.21
2018-08-11T04:35:35.208Z,54.92
2018-08-11T04:38:03.415Z,54.53
2018-08-11T04:40:31.869Z,54.25
2018-08-11T04:43:00.284Z,54.44
2018-08-11T04:45:28.429Z,54.80
2018-08-11T04:47:56.615Z,54.67
2018-08-11T04:50:24.733Z,54.52
2018-08-11T04:52:52.896Z,55.04
2018-08-11T04:55:21.055Z,54.36
2018-08-11T04:57:49.310Z,54.74
2018-08-11T05:00:17.470Z,54.55
2018-08-11T05:02:45.560Z,55.02
2018-08-11T05:05:13.763Z,54.99
2018-08-11T05:07:41.870Z,55.26
2018-08-11T05:10:10.025Z,55.25
2018-08-11T05:12:38.157Z,55.73
2018-08-11T05:15:07.877Z,55.44
2018-08-11T05:17:36.021Z,55.41
2018-08-11T05:20:04.531Z,55.11
2018-08-11T05:22:32.737Z,54.77
2018-08-11T05:25:00.863Z,54.01
2018-08-11T05:27:29.073Z,53.36
2018-08-11T05:29:57.281Z,51.92
2018-08-11T05:32:25.897Z,52.29
2018-08-11T05:34:54.938Z,50.92
2018-08-11T05:37:23.059Z,50.77
2018-08-11T05:39:52.207Z,50.68
2018-08-11T05:42:20.516Z,49.78
2018-08-11T05:44:48.729Z,49.93
2018-08-11T05:47:17.087Z,49.89
2018-08-11T05:49:45.431Z,50.13
2018-08-11T05:52:13.613Z,48.33
2018-08-11T05:54:41.965Z,44.83
2018-08-11T05:57:10.048Z,41.91
2018-08-11T05:59:38.358Z,39.27
2018-08-11T06:02:07.218Z,39.20
2018-08-11T06:04:35.392Z,39.43
2018-08-11T06:07:04.008Z,40.89
2018-08-11T06:09:32.116Z,41.80
2018-08-11T06:12:00.407Z,41.62
2018-08-11T06:14:28.652Z,41.39
2018-08-11T06:16:57.051Z,41.44
2018-08-11T06:19:25.508Z,40.21
2018-08-11T06:21:53.904Z,39.65
2018-08-11T06:24:22.102Z,38.77
2018-08-11T06:26:50.419Z,38.58
2018-08-11T06:29:18.590Z,38.01
2018-08-11T06:31:46.864Z,37.49
2018-08-11T06:34:14.982Z,38.07
2018-08-11T06:36:43.122Z,37.63
2018-08-11T06:39:13.215Z,37.61
2018-08-11T06:41:42.264Z,36.78
2018-08-11T06:44:11.111Z,35.23
2018-08-11T06:46:39.387Z,35.02
2018-08-11T06:49:07.626Z,34.61
2018-08-11T06:51:36.399Z,34.27
2018-08-11T06:54:04.739Z,34.11
2018-08-11T06:56:32.945Z,33.79
2018-08-11T06:59:01.175Z,33.23
2018-08-11T07:01:29.295Z,32.10
2018-08-11T07:03:57.497Z,31.08
2018-08-11T07:06:25.695Z,28.94
2018-08-11T07:08:53.836Z,26.78
2018-08-11T07:11:22.101Z,25.39
2018-08-11T07:13:50.282Z,22.35
2018-08-11T07:16:18.833Z,21.27
2018-08-11T07:18:46.949Z,21.55
2018-08-11T07:21:15.115Z,20.23
2018-08-11T07:23:43.205Z,20.44
2018-08-11T07:26:11.429Z,22.15
2018-08-11T07:28:39.713Z,23.76
2018-08-11T07:31:07.956Z,24.83
2018-08-11T07:33:36.230Z,25.99
2018-08-11T07:36:04.537Z,24.93
2018-08-11T07:38:33.736Z,25.07
2018-08-11T07:41:02.039Z,22.75
2018-08-11T07:43:30.466Z,23.21
2018-08-11T07:45:58.827Z,23.30
2018-08-11T07:48:27.036Z,23.43
2018-08-11T07:50:55.275Z,23.55
2018-08-11T07:53:23.524Z,23.34
2018-08-11T07:55:52.004Z,22.95
2018-08-11T07:58:20.238Z,23.36
2018-08-11T08:00:48.454Z,22.88
2018-08-11T08:03:16.918Z,24.38
2018-08-11T08:05:45.052Z,23.53
2018-08-11T08:08:13.187Z,23.15
2018-08-11T08:10:41.347Z,23.87
2018-08-11T08:13:09.619Z,24.88
2018-08-11T08:15:38.198Z,25.94
2018-08-11T08:18:07.157Z,25.99
2018-08-11T08:20:35.301Z,27.24
2018-08-11T08:23:03.429Z,27.61
2018-08-11T08:25:31.613Z,27.60
2018-08-11T08:28:00.645Z,27.16
2018-08-11T08:30:28.831Z,27.19
2018-08-11T08:32:57.079Z,25.50
2018-08-11T08:35:25.270Z,24.06
2018-08-11T08:37:53.571Z,23.32
2018-08-11T08:40:21.797Z,22.92
2018-08-11T08:42:50.057Z,23.96
2018-08-11T08:45:18.263Z,24.20
2018-08-11T08:47:46.507Z,24.54
2018-08-11T08:50:14.628Z,23.92
2018-08-11T08:52:43.282Z,24.63
2018-08-11T08:55:11.647Z,24.61
2018-08-11T08:57:39.852Z,24.65
2018-08-11T09:00:08.012Z,24.49
2018-08-11T09:02:36.352Z,24.78
2018-08-11T09:05:04.600Z,24.82
2018-08-11T09:07:32.864Z,23.89
2018-08-11T09:10:01.111Z,23.97
2018-08-11T09:12:29.342Z,23.81
2018-08-11T09:14:57.784Z,21.90
2018-08-11T09:17:26.653Z,21.79
2018-08-11T09:19:54.835Z,20.09
2018-08-11T09:22:22.976Z,18.34
2018-08-11T09:24:51.231Z,17.91
2018-08-11T09:27:19.420Z,17.84
2018-08-11T09:29:47.687Z,17.40
2018-08-11T09:32:15.845Z,17.65
2018-08-11T09:34:44.084Z,16.53
2018-08-11T09:37:12.364Z,17.29
2018-08-11T09:39:41.032Z,18.46
2018-08-11T09:42:09.324Z,18.62
2018-08-11T09:44:37.580Z,15.41
2018-08-11T09:47:05.821Z,14.29
2018-08-11T09:49:34.090Z,12.81
2018-08-11T09:52:02.274Z,11.95
2018-08-11T09:54:30.502Z,10.64
2018-08-11T09:56:58.772Z,11.16
2018-08-11T09:59:27.858Z,12.11
2018-08-11T10:02:01.652Z,13.73
2018-08-11T10:04:29.946Z,16.73
2018-08-11T10:06:58.208Z,13.12
2018-08-11T10:09:26.490Z,12.36
2018-08-11T10:11:54.756Z,10.58
2018-08-11T10:14:22.962Z,11.43
2018-08-11T10:16:51.132Z,10.17
2018-08-11T10:19:19.318Z,11.22
2018-08-11T10:21:47.456Z,10.79
2018-08-11T10:24:15.620Z,12.45
2018-08-11T10:26:44.134Z,14.59
2018-08-11T10:29:12.226Z,16.94
2018-08-11T10:31:40.442Z,18.81
2018-08-11T10:34:08.713Z,20.00
2018-08-11T10:36:36.948Z,16.63
2018-08-11T10:39:09.809Z,15.76
2018-08-11T10:41:38.539Z,17.12
2018-08-11T10:44:07.014Z,16.28
2018-08-11T10:46:35.470Z,17.73
2018-08-11T10:49:03.976Z,18.19
2018-08-11T10:51:32.170Z,20.00
2018-08-11T10:54:00.585Z,20.31
2018-08-11T10:56:28.798Z,16.24
2018-08-11T10:58:57.080Z,13.34
2018-08-11T11:01:25.378Z,11.65
2018-08-11T11:03:53.779Z,10.51
2018-08-11T11:06:22.033Z,10.51
2018-08-11T11:08:50.251Z,11.68
2018-08-11T11:11:18.492Z,13.97
2018-08-11T11:13:46.684Z,13.37
2018-08-11T11:16:14.908Z,10.75
2018-08-11T11:18:43.164Z,12.13
2018-08-11T11:21:11.480Z,11.49
2018-08-11T11:23:39.640Z,11.18
2018-08-11T11:26:07.884Z,9.06
2018-08-11T11:28:35.997Z,10.00
2018-08-11T11:31:04.390Z,11.06
2018-08-11T11:33:32.624Z,9.41
2018-08-11T11:36:00.886Z,8.77
2018-08-11T11:38:29.245Z,7.69
2018-08-11T11:40:57.836Z,7.00
2018-08-11T11:43:26.760Z,7.27
2018-08-11T11:45:55.273Z,6.15
2018-08-11T11:48:23.496Z,7.67
2018-08-11T11:50:51.740Z,6.97
2018-08-11T11:53:19.968Z,7.17
2018-08-11T11:55:48.129Z,7.74
2018-08-11T11:58:17.076Z,7.80
2018-08-11T12:00:45.359Z,9.25
2018-08-11T12:03:13.746Z,9.84
2018-08-11T12:05:42.137Z,10.91
2018-08-11T12:08:10.593Z,10.86
2018-08-11T12:10:38.773Z,12.10
2018-08-11T12:13:07.241Z,11.75
2018-08-11T12:15:35.474Z,9.32
2018-08-11T12:18:04.648Z,8.02
2018-08-11T12:20:32.858Z,10.91
2018-08-11T12:23:01.097Z,8.71
2018-08-11T12:25:29.914Z,7.97
2018-08-11T12:28:00.015Z,8.30
2018-08-11T12:30:28.178Z,9.08
2018-08-11T12:32:56.350Z,8.66
2018-08-11T12:35:24.528Z,7.84
2018-08-11T12:37:52.800Z,6.44
2018-08-11T12:40:21.116Z,6.06
2018-08-11T12:42:49.337Z,5.57
2018-08-11T12:45:17.593Z,6.85
2018-08-11T12:47:45.887Z,5.76
2018-08-11T12:50:14.091Z,6.33
2018-08-11T12:52:42.227Z,5.86
2018-08-11T12:55:10.377Z,5.75
2018-08-11T12:57:38.591Z,6.10
2018-08-11T13:00:08.405Z,6.03
2018-08-11T13:02:36.871Z,5.80
2018-08-11T13:05:05.089Z,7.05
2018-08-11T13:07:33.521Z,7.53
2018-08-11T13:10:01.628Z,7.19
2018-08-11T13:12:30.291Z,6.72
2018-08-11T13:14:58.583Z,6.93
2018-08-11T13:17:26.732Z,8.00
2018-08-11T13:19:54.989Z,9.87
2018-08-11T13:22:23.234Z,10.68
2018-08-11T13:24:51.444Z,9.90
2018-08-11T13:27:19.652Z,8.25
2018-08-11T13:29:47.864Z,7.63
2018-08-11T13:32:16.094Z,7.33
2018-08-11T13:34:44.342Z,7.20
2018-08-11T13:37:12.545Z,7.17
2018-08-11T13:39:47.523Z,7.18
2018-08-11T13:42:15.751Z,8.24
2018-08-11T13:44:43.945Z,7.98
2018-08-11T13:47:12.076Z,7.88
2018-08-11T13:49:40.380Z,7.73
2018-08-11T13:52:08.537Z,8.15
2018-08-11T13:54:36.753Z,8.19
2018-08-11T13:57:05.439Z,9.28
2018-08-11T13:59:33.782Z,9.55
2018-08-11T14:02:02.234Z,9.58
2018-08-11T14:04:30.638Z,9.41
2018-08-11T14:06:58.886Z,9.37
2018-08-11T14:09:27.170Z,10.14
2018-08-11T14:11:55.432Z,11.83
2018-08-11T14:14:23.653Z,14.04
2018-08-11T14:16:51.824Z,14.85
2018-08-11T14:19:20.059Z,15.97
2018-08-11T14:21:48.321Z,18.05
2018-08-11T14:24:16.544Z,19.29
2018-08-11T14:26:44.723Z,19.96
2018-08-11T14:29:13.029Z,20.26
2018-08-11T14:31:41.378Z,20.15
2018-08-11T14:34:09.596Z,20.65
2018-08-11T14:36:37.840Z,20.66
2018-08-11T14:39:08.316Z,20.56
2018-08-11T14:41:37.041Z,20.95
2018-08-11T14:44:06.497Z,21.59
2018-08-11T14:46:34.786Z,21.47
2018-08-11T14:49:02.951Z,21.88
2018-08-11T14:51:32.081Z,22.12
2018-08-11T14:54:00.517Z,22.30
2018-08-11T14:56:28.749Z,21.44
2018-08-11T14:58:56.919Z,22.04
2018-08-11T15:01:25.181Z,22.25
2018-08-11T15:03:53.371Z,21.53
2018-08-11T15:06:22.128Z,21.42
2018-08-11T15:08:50.469Z,20.55
2018-08-11T15:11:18.827Z,20.83
2018-08-11T15:13:47.052Z,21.49
2018-08-11T15:16:16.127Z,21.04
2018-08-11T15:18:44.295Z,20.93
2018-08-11T15:21:12.462Z,21.43
2018-08-11T15:23:40.706Z,21.19
2018-08-11T15:26:09.068Z,21.83
2018-08-11T15:28:37.263Z,21.19
2018-08-11T15:31:05.430Z,21.64
2018-08-11T15:33:33.831Z,21.71
2018-08-11T15:36:02.064Z,22.20
2018-08-11T15:38:30.486Z,22.46
2018-08-11T15:40:58.689Z,23.21
2018-08-11T15:43:26.999Z,23.38
2018-08-11T15:45:56.177Z,23.19
2018-08-11T15:48:24.356Z,22.62
2018-08-11T15:50:53.744Z,22.44
2018-08-11T15:53:21.879Z,22.76
2018-08-11T15:55:50.260Z,21.98
2018-08-11T15:58:18.390Z,23.03
2018-08-11T16:00:46.682Z,22.85
2018-08-11T16:03:14.982Z,22.45
2018-08-11T16:05:43.099Z,22.55
2018-08-11T16:08:11.485Z,22.56
2018-08-11T16:10:40.343Z,23.76
2018-08-11T16:13:08.666Z,22.81
2018-08-11T16:15:36.909Z,23.91
2018-08-11T16:18:05.251Z,23.63
2018-08-11T16:20:33.408Z,23.22
2018-08-11T16:23:01.619Z,23.83
2018-08-11T16:25:30.369Z,23.79
2018-08-11T16:27:58.804Z,23.29
2018-08-11T16:30:27.553Z,22.74
2018-08-11T16:32:55.792Z,24.29
2018-08-11T16:35:23.967Z,23.92
2018-08-11T16:37:52.568Z,23.81
2018-08-11T16:40:20.883Z,24.63
2018-08-11T16:42:49.170Z,24.12
2018-08-11T16:45:17.460Z,23.98
2018-08-11T16:47:46.031Z,24.30
2018-08-11T16:50:14.235Z,24.71
2018-08-11T16:52:42.438Z,24.87
2018-08-11T16:55:10.539Z,24.27
2018-08-11T16:57:38.723Z,24.18
2018-08-11T17:00:10.463Z,24.89
2018-08-11T17:02:39.205Z,24.27
2018-08-11T17:05:07.370Z,24.56
2018-08-11T17:07:35.595Z,24.63
2018-08-11T17:10:05.880Z,25.09
2018-08-11T17:12:34.073Z,25.28
2018-08-11T17:15:02.515Z,25.34
2018-08-11T17:17:31.087Z,24.75
2018-08-11T17:19:59.263Z,25.49
2018-08-11T17:22:27.443Z,25.45
2018-08-11T17:24:55.556Z,25.57
2018-08-11T17:27:24.654Z,25.04
2018-08-11T17:29:52.931Z,25.93
2018-08-11T17:32:21.229Z,25.82
2018-08-11T17:34:50.342Z,25.79
2018-08-11T17:37:18.824Z,26.18
2018-08-11T17:39:47.140Z,26.20
2018-08-11T17:42:15.832Z,26.41
2018-08-11T17:44:44.308Z,26.68
2018-08-11T17:47:12.572Z,26.15
2018-08-11T17:49:41.068Z,26.03
2018-08-11T17:52:10.113Z,26.02
2018-08-11T17:54:38.356Z,26.95
2018-08-11T17:57:06.569Z,26.16
2018-08-11T17:59:34.860Z,26.03
2018-08-11T18:02:03.184Z,26.08
2018-08-11T18:04:31.405Z,27.18
2018-08-11T18:06:59.670Z,27.44
2018-08-11T18:09:27.829Z,27.27
2018-08-11T18:11:56.167Z,27.47
2018-08-11T18:14:24.332Z,26.98
2018-08-11T18:16:52.481Z,27.15
2018-08-11T18:19:20.593Z,27.50
2018-08-11T18:21:49.827Z,28.16
2018-08-11T18:24:18.115Z,27.62
2018-08-11T18:26:46.343Z,27.76
2018-08-11T18:29:14.623Z,28.55
2018-08-11T18:31:42.751Z,28.10
2018-08-11T18:34:10.935Z,28.78
2018-08-11T18:36:39.111Z,28.44
2018-08-11T18:39:11.901Z,28.25
2018-08-11T18:41:41.203Z,29.16
2018-08-11T18:44:09.483Z,28.43
2018-08-11T18:46:37.706Z,28.49
2018-08-11T18:49:06.365Z,29.17
2018-08-11T18:51:34.837Z,29.55
2018-08-11T18:54:03.075Z,29.03
2018-08-11T18:56:31.688Z,29.13
2018-08-11T18:59:00.056Z,29.81
2018-08-11T19:01:28.283Z,29.94
2018-08-11T19:03:56.623Z,29.55
2018-08-11T19:06:25.599Z,29.94
2018-08-11T19:08:53.826Z,30.55
2018-08-11T19:11:22.031Z,30.76
2018-08-11T19:13:50.199Z,30.32
2018-08-11T19:16:18.568Z,30.74
2018-08-11T19:18:46.820Z,30.49
2018-08-11T19:21:15.027Z,30.54
2018-08-11T19:23:43.270Z,30.02
2018-08-11T19:26:11.848Z,30.44
2018-08-11T19:28:40.130Z,30.16
2018-08-11T19:31:08.387Z,30.81
2018-08-11T19:33:36.627Z,31.68
2018-08-11T19:36:04.985Z,31.16
2018-08-11T19:38:33.272Z,31.49
2018-08-11T19:41:01.640Z,32.53
2018-08-11T19:43:29.858Z,32.29
2018-08-11T19:45:58.287Z,31.60
2018-08-11T19:48:27.209Z,32.42
2018-08-11T19:50:55.557Z,32.44
2018-08-11T19:53:23.832Z,32.81
2018-08-11T19:55:52.081Z,32.78
2018-08-11T19:58:20.702Z,32.58
2018-08-11T20:00:49.064Z,33.09
2018-08-11T20:03:17.270Z,32.62
2018-08-11T20:05:45.583Z,32.64
2018-08-11T20:08:13.774Z,33.04
2018-08-11T20:10:42.368Z,33.13
2018-08-11T20:13:11.672Z,32.98
2018-08-11T20:15:40.152Z,33.52
2018-08-11T20:18:08.368Z,33.91
2018-08-11T20:20:36.660Z,34.00
2018-08-11T20:23:04.935Z,34.14
2018-08-11T20:25:33.351Z,33.88
2018-08-11T20:28:02.525Z,34.84
2018-08-11T20:30:30.829Z,34.01
2018-08-11T20:32:59.122Z,34.45
2018-08-11T20:35:27.319Z,34.86
2018-08-11T20:37:56.185Z,34.98
2018-08-11T20:40:24.555Z,34.80
2018-08-11T20:42:52.837Z,35.63
2018-08-11T20:45:21.137Z,35.92
2018-08-11T20:47:50.329Z,35.23
2018-08-11T20:50:18.710Z,35.38
2018-08-11T20:52:46.884Z,35.69
2018-08-11T20:55:15.210Z,36.19
2018-08-11T20:57:43.385Z,36.19
2018-08-11T21:00:12.854Z,35.95
2018-08-11T21:02:41.327Z,35.69
2018-08-11T21:05:12.278Z,36.00
2018-08-11T21:07:40.479Z,36.10
2018-08-11T21:10:12.468Z,36.85
2018-08-11T21:12:41.396Z,37.09
2018-08-11T21:15:10.781Z,36.18
2018-08-11T21:17:39.097Z,36.26
2018-08-11T21:20:11.759Z,35.60
2018-08-11T21:22:40.835Z,35.75
2018-08-11T21:25:10.803Z,35.67
2018-08-11T21:27:39.232Z,35.93
2018-08-11T21:30:12.164Z,35.70
2018-08-11T21:32:40.587Z,36.06
2018-08-11T21:35:08.919Z,36.51
2018-08-11T21:37:37.108Z,36.30
2018-08-11T21:40:09.389Z,36.99
2018-08-11T21:42:37.631Z,37.30
2018-08-11T21:45:06.049Z,37.08
2018-08-11T21:47:34.340Z,37.14
2018-08-11T21:50:02.731Z,37.51
2018-08-11T21:52:31.155Z,38.02
2018-08-11T21:54:59.291Z,38.86
2018-08-11T21:57:27.549Z,38.48
2018-08-11T21:59:55.749Z,38.99
2018-08-11T22:02:23.883Z,38.95
2018-08-11T22:04:52.034Z,39.53
2018-08-11T22:07:20.185Z,39.84
2018-08-11T22:09:48.346Z,39.45
2018-08-11T22:12:16.633Z,40.66
2018-08-11T22:14:44.821Z,40.38
2018-08-11T22:17:13.071Z,39.98
2018-08-11T22:19:41.625Z,40.19
2018-08-11T22:22:09.804Z,40.67
2018-08-11T22:24:37.949Z,40.29
2018-08-11T22:27:06.346Z,41.64
2018-08-11T22:29:34.572Z,41.05
2018-08-11T22:32:02.764Z,41.37
2018-08-11T22:34:31.006Z,41.64
2018-08-11T22:36:59.177Z,42.38
2018-08-11T22:39:27.319Z,42.74
2018-08-11T22:41:55.585Z,42.87
2018-08-11T22:44:23.713Z,43.23
2018-08-11T22:46:51.993Z,42.93
2018-08-11T22:49:20.876Z,42.91
2018-08-11T22:51:49.069Z,44.10
2018-08-11T22:54:17.193Z,44.24
2018-08-11T22:56:45.421Z,44.06
2018-08-11T22:59:13.639Z,44.67
2018-08-11T23:01:41.943Z,45.09
2018-08-11T23:04:10.354Z,45.11
2018-08-11T23:06:38.533Z,45.23
2018-08-11T23:09:07.406Z,45.41
2018-08-11T23:11:35.610Z,45.10
2018-08-11T23:14:03.924Z,44.83
2018-08-11T23:16:32.042Z,45.01
2018-08-11T23:19:00.216Z,45.07
2018-08-11T23:21:28.444Z,45.47
2018-08-11T23:23:56.731Z,45.36
2018-08-11T23:26:24.961Z,46.24
2018-08-11T23:28:53.180Z,45.95
2018-08-11T23:31:21.364Z,45.95
2018-08-11T23:33:49.668Z,45.13
2018-08-11T23:36:17.924Z,45.50
2018-08-11T23:38:46.106Z,46.17
2018-08-11T23:41:14.924Z,45.82
2018-08-11T23:43:44.165Z,46.58
2018-08-11T23:46:12.457Z,45.67
2018-08-11T23:48:40.727Z,46.35
2018-08-11T23:51:09.000Z,46.73
2018-08-11T23:53:37.242Z,46.65
2018-08-11T23:56:05.640Z,46.22
2018-08-11T23:58:33.809Z,47.13
